Time;durP1;ratioP1;P1;durP2;ratioP2;P2;SDS_P1;SDS_P2;PMS_P1;PMS_P2;Temp;Humidity;BMP_temperature;BMP_pressure;BME280_temperature;BME280_humidity;BME280_pressure;Samples;Min_cycle;Max_cycle;Signal;HPM_P1;HPM_P2
2023/12/11 00:00:21;;;;;;;9.23;9.03;;;10.80;99.90;;;;;;5086794;28;20566;-71
2023/12/11 00:02:48;;;;;;;9.47;9.27;;;10.80;99.90;;;;;;5084995;28;20477;-70
2023/12/11 00:05:15;;;;;;;9.17;8.97;;;10.70;99.90;;;;;;5083293;28;20494;-69
2023/12/11 00:07:43;;;;;;;9.33;9.13;;;10.80;99.90;;;;;;5089468;28;20470;-70
2023/12/11 00:10:11;;;;;;;9.43;9.23;;;10.80;99.90;;;;;;5081708;28;20478;-69
2023/12/11 00:12:40;;;;;;;8.83;8.63;;;10.70;99.90;;;;;;5072223;28;20454;-70
2023/12/11 00:15:10;;;;;;;9.03;8.83;;;10.70;99.90;;;;;;5079202;28;20477;-70
2023/12/11 00:17:37;;;;;;;8.40;8.30;;;10.60;99.90;;;;;;5075771;28;20542;-69
2023/12/11 00:20:05;;;;;;;9.03;8.83;;;10.50;99.90;;;;;;5081998;28;20469;-70
2023/12/11 00:22:32;;;;;;;8.60;8.50;;;10.50;99.90;;;;;;5088140;28;20454;-69
2023/12/11 00:24:59;;;;;;;8.93;8.73;;;10.50;99.90;;;;;;5078274;28;20491;-70
2023/12/11 00:27:26;;;;;;;8.53;8.43;;;10.50;99.90;;;;;;5089915;28;20566;-69
2023/12/11 00:29:55;;;;;;;8.50;8.40;;;10.50;99.90;;;;;;5074600;28;20470;-70
2023/12/11 00:32:21;;;;;;;8.80;8.63;;;10.40;99.90;;;;;;5090650;28;20473;-70
2023/12/11 00:34:48;;;;;;;9.00;8.80;;;10.40;99.90;;;;;;5085388;28;20464;-70
2023/12/11 00:37:15;;;;;;;8.50;8.40;;;10.40;99.90;;;;;;5087263;28;20463;-71
2023/12/11 00:39:44;;;;;;;9.10;8.90;;;10.40;99.90;;;;;;5087622;28;20831;-70
2023/12/11 00:42:12;;;;;;;9.23;9.03;;;10.50;99.90;;;;;;5076564;28;20463;-71
2023/12/11 00:44:40;;;;;;;9.13;8.93;;;10.50;99.90;;;;;;5088662;28;20816;-70
2023/12/11 00:47:10;;;;;;;8.70;8.60;;;10.50;99.90;;;;;;5083120;28;20962;-72
2023/12/11 00:49:37;;;;;;;9.13;8.93;;;10.40;99.90;;;;;;5087639;28;20463;-71
2023/12/11 00:52:05;;;;;;;8.87;8.67;;;10.40;99.90;;;;;;5089924;28;20485;-71
2023/12/11 00:54:32;;;;;;;9.40;9.20;;;10.50;99.90;;;;;;5076325;28;20464;-71
2023/12/11 00:56:59;;;;;;;9.20;9.00;;;10.60;99.90;;;;;;5081427;28;20474;-72
2023/12/11 00:59:26;;;;;;;9.63;9.43;;;10.70;99.90;;;;;;5077885;28;20810;-71
2023/12/11 01:01:54;;;;;;;9.80;9.60;;;10.70;99.90;;;;;;5084326;28;20459;-71
2023/12/11 01:04:23;;;;;;;9.97;9.77;;;10.70;99.90;;;;;;5079684;28;20461;-70
2023/12/11 01:06:50;;;;;;;9.60;9.40;;;10.70;99.90;;;;;;5088130;28;20490;-72
2023/12/11 01:09:17;;;;;;;9.70;9.50;;;10.70;99.90;;;;;;5072209;28;20451;-72
2023/12/11 01:11:44;;;;;;;9.37;9.17;;;10.60;99.90;;;;;;5075543;28;20463;-71
2023/12/11 01:14:12;;;;;;;10.30;10.10;;;10.60;99.90;;;;;;5089270;28;20963;-71
2023/12/11 01:16:39;;;;;;;9.70;9.50;;;10.60;99.90;;;;;;5073185;28;20470;-72
2023/12/11 01:19:07;;;;;;;9.50;9.30;;;10.60;99.90;;;;;;5078603;28;20456;-71
2023/12/11 01:21:36;;;;;;;9.23;9.03;;;10.70;99.90;;;;;;5085139;28;21107;-71
2023/12/11 01:24:04;;;;;;;9.87;9.67;;;10.80;99.90;;;;;;5083275;28;20458;-70
2023/12/11 01:26:31;;;;;;;9.20;9.00;;;10.80;99.90;;;;;;5079136;28;20493;-72
2023/12/11 01:28:57;;;;;;;9.47;9.27;;;10.90;99.90;;;;;;5080255;28;20471;-70
2023/12/11 01:31:24;;;;;;;9.63;9.43;;;10.90;99.90;;;;;;5093854;28;20737;-71
2023/12/11 01:33:51;;;;;;;9.50;9.30;;;10.90;99.90;;;;;;5089184;28;20577;-70
2023/12/11 01:36:19;;;;;;;9.40;9.20;;;10.90;99.90;;;;;;5080889;28;20563;-70
2023/12/11 01:38:49;;;;;;;9.50;9.30;;;11.00;99.90;;;;;;5076080;28;20512;-72
2023/12/11 01:41:17;;;;;;;9.90;9.70;;;10.90;99.90;;;;;;5087793;28;20467;-71
2023/12/11 01:43:52;;;;;;;9.80;9.60;;;10.90;99.90;;;;;;5079834;28;20489;-70
2023/12/11 01:46:19;;;;;;;9.47;9.27;;;11.00;99.90;;;;;;5083792;28;20482;-72
2023/12/11 01:48:46;;;;;;;9.73;9.53;;;11.00;99.90;;;;;;5072033;28;20759;-71
2023/12/11 01:51:15;;;;;;;10.07;9.87;;;11.00;99.90;;;;;;5081448;28;20483;-70
2023/12/11 01:53:45;;;;;;;9.90;9.70;;;11.00;99.90;;;;;;5086415;28;20909;-71
2023/12/11 01:56:14;;;;;;;10.10;9.90;;;11.00;99.90;;;;;;5096146;28;20469;-72
2023/12/11 01:58:41;;;;;;;9.80;9.60;;;11.00;99.90;;;;;;5090056;28;20489;-72
2023/12/11 02:01:10;;;;;;;10.13;9.93;;;11.00;99.90;;;;;;5088541;28;20451;-70
2023/12/11 02:03:38;;;;;;;10.23;10.03;;;10.80;99.90;;;;;;5081365;28;20462;-71
2023/12/11 02:06:05;;;;;;;10.23;10.03;;;10.80;99.90;;;;;;5087956;28;20489;-72
2023/12/11 02:08:32;;;;;;;9.70;9.50;;;10.80;99.90;;;;;;5077289;28;20462;-71
2023/12/11 02:11:00;;;;;;;10.00;9.80;;;10.70;99.90;;;;;;5088723;28;20465;-70
2023/12/11 02:13:28;;;;;;;9.90;9.70;;;10.70;99.90;;;;;;5084611;28;20949;-69
2023/12/11 02:15:56;;;;;;;10.10;9.90;;;10.60;99.90;;;;;;5083510;28;20458;-70
2023/12/11 02:18:23;;;;;;;10.00;9.80;;;10.60;99.90;;;;;;5080418;28;20500;-72
2023/12/11 02:20:50;;;;;;;9.77;9.57;;;10.60;99.90;;;;;;5088699;28;20482;-69
2023/12/11 02:23:28;;;;;;;10.30;10.10;;;10.60;99.90;;;;;;5081437;28;21177;-71
2023/12/11 02:26:10;;;;;;;10.07;9.87;;;10.60;99.90;;;;;;5083717;28;21209;-72
2023/12/11 02:28:37;;;;;;;9.77;9.57;;;10.60;99.90;;;;;;5088320;28;20457;-72
2023/12/11 02:31:05;;;;;;;10.10;9.90;;;10.70;99.90;;;;;;5083127;28;20565;-70
2023/12/11 02:33:32;;;;;;;9.80;9.60;;;10.80;99.90;;;;;;5087286;28;20465;-70
2023/12/11 02:36:00;;;;;;;10.00;9.80;;;10.70;99.90;;;;;;5081536;28;20494;-70
2023/12/11 02:38:27;;;;;;;9.90;9.70;;;10.70;99.90;;;;;;5080524;28;20471;-70
2023/12/11 02:40:56;;;;;;;10.70;10.50;;;10.70;99.90;;;;;;5083600;28;20454;-70
2023/12/11 02:43:24;;;;;;;10.30;10.10;;;10.70;99.90;;;;;;5079215;28;20482;-70
2023/12/11 02:45:51;;;;;;;9.93;9.73;;;10.80;99.90;;;;;;5082044;28;20491;-69
2023/12/11 02:48:19;;;;;;;10.73;10.50;;;10.80;99.90;;;;;;5081737;28;20846;-69
2023/12/11 02:50:46;;;;;;;10.60;10.40;;;10.90;99.90;;;;;;5081195;28;21062;-69
2023/12/11 02:53:15;;;;;;;10.60;10.40;;;10.90;99.90;;;;;;5078647;28;21009;-69
2023/12/11 02:55:42;;;;;;;10.37;10.17;;;11.00;99.90;;;;;;5070063;28;20499;-70
2023/12/11 02:58:10;;;;;;;10.50;10.30;;;10.90;99.90;;;;;;5088009;28;20462;-69
2023/12/11 03:00:39;;;;;;;10.47;10.27;;;11.00;99.90;;;;;;5092978;28;20852;-69
2023/12/11 03:03:08;;;;;;;10.60;10.40;;;11.00;99.90;;;;;;5089616;28;20454;-69
2023/12/11 03:05:35;;;;;;;10.77;10.57;;;10.90;99.90;;;;;;5083259;28;20535;-69
2023/12/11 03:08:04;;;;;;;10.70;10.50;;;10.90;99.90;;;;;;5079877;28;20480;-69
2023/12/11 03:10:31;;;;;;;10.53;10.33;;;10.90;99.90;;;;;;5075849;28;21146;-70
2023/12/11 03:12:58;;;;;;;11.10;10.80;;;10.90;99.90;;;;;;5080092;28;20466;-69
2023/12/11 03:15:25;;;;;;;11.10;10.80;;;10.90;99.90;;;;;;5085585;28;20462;-69
2023/12/11 03:17:54;;;;;;;10.50;10.30;;;11.00;99.90;;;;;;5087530;28;20458;-69
2023/12/11 03:20:22;;;;;;;10.63;10.43;;;11.10;99.90;;;;;;5077766;28;20470;-69
2023/12/11 03:22:48;;;;;;;11.27;10.97;;;11.00;99.90;;;;;;5085439;28;20477;-69
2023/12/11 03:25:15;;;;;;;11.23;10.93;;;11.00;99.90;;;;;;5082407;28;20485;-68
2023/12/11 03:27:42;;;;;;;11.20;10.90;;;11.00;99.90;;;;;;5088840;28;20493;-68
2023/12/11 03:30:10;;;;;;;11.17;10.87;;;10.90;99.90;;;;;;5083850;28;20474;-69
2023/12/11 03:32:37;;;;;;;11.30;11.00;;;11.00;99.90;;;;;;5083445;28;20486;-69
2023/12/11 03:35:06;;;;;;;10.87;10.67;;;10.90;99.90;;;;;;5091120;28;20540;-69
2023/12/11 03:37:33;;;;;;;11.10;10.80;;;10.90;99.90;;;;;;5082568;28;20563;-69
2023/12/11 03:40:00;;;;;;;11.40;11.10;;;10.90;99.90;;;;;;5090931;28;20451;-69
2023/12/11 03:42:27;;;;;;;11.43;11.13;;;10.90;99.90;;;;;;5091275;28;20466;-69
2023/12/11 03:44:58;;;;;;;11.43;11.13;;;11.00;99.90;;;;;;5079331;28;20516;-68
2023/12/11 03:47:25;;;;;;;11.90;11.60;;;11.00;99.90;;;;;;5087662;28;20642;-68
2023/12/11 03:49:53;;;;;;;11.80;11.50;;;11.10;99.90;;;;;;5083217;28;20463;-69
2023/12/11 03:52:22;;;;;;;11.67;11.37;;;11.10;99.90;;;;;;5086150;28;20471;-69
2023/12/11 03:54:49;;;;;;;12.10;11.80;;;11.10;99.90;;;;;;5089627;28;20454;-69
2023/12/11 03:57:15;;;;;;;11.83;11.53;;;11.10;99.90;;;;;;5083164;28;20494;-68
2023/12/11 03:59:42;;;;;;;11.40;11.10;;;11.00;99.90;;;;;;5085628;28;20454;-69
2023/12/11 04:02:09;;;;;;;11.30;11.00;;;11.00;99.90;;;;;;5090871;28;20464;-69
2023/12/11 04:04:38;;;;;;;11.53;11.23;;;11.00;99.90;;;;;;5090784;28;21151;-69
2023/12/11 04:07:04;;;;;;;10.90;10.67;;;11.00;99.90;;;;;;5079001;28;20620;-69
2023/12/11 04:09:33;;;;;;;11.30;11.00;;;11.00;99.90;;;;;;5090608;28;20455;-69
2023/12/11 04:12:00;;;;;;;11.50;11.20;;;11.10;99.90;;;;;;5070798;28;20467;-69
2023/12/11 04:14:26;;;;;;;11.10;10.80;;;11.20;99.90;;;;;;5076385;28;20459;-69
2023/12/11 04:16:54;;;;;;;18.63;17.73;;;11.20;99.90;;;;;;5098972;28;20461;-69
2023/12/11 04:19:21;;;;;;;17.70;16.90;;;11.10;99.90;;;;;;5090292;28;20994;-70
2023/12/11 04:21:48;;;;;;;17.17;16.37;;;10.80;99.90;;;;;;5081035;28;20985;-70
2023/12/11 04:24:15;;;;;;;16.30;15.60;;;10.70;99.90;;;;;;5086167;28;20551;-70
2023/12/11 04:26:43;;;;;;;15.30;14.70;;;10.70;99.90;;;;;;5083215;28;20593;-70
2023/12/11 04:29:11;;;;;;;14.23;13.73;;;10.60;99.90;;;;;;5081296;28;21000;-70
2023/12/11 04:31:38;;;;;;;14.40;13.90;;;10.60;99.90;;;;;;5082453;28;20459;-70
2023/12/11 04:34:05;;;;;;;19.63;18.63;;;10.60;99.90;;;;;;5074490;28;20856;-69
2023/12/11 04:36:33;;;;;;;22.40;20.90;;;10.60;99.90;;;;;;5085241;28;20559;-71
2023/12/11 04:39:00;;;;;;;20.60;19.20;;;10.30;99.90;;;;;;5078713;28;20471;-71
2023/12/11 04:41:27;;;;;;;20.10;18.80;;;10.10;99.90;;;;;;5091994;28;20454;-71
2023/12/11 04:43:57;;;;;;;18.23;17.13;;;10.00;99.90;;;;;;5085931;28;21049;-71
2023/12/11 04:46:24;;;;;;;16.73;15.83;;;9.80;99.90;;;;;;5081369;28;20504;-72
2023/12/11 04:48:50;;;;;;;15.10;14.40;;;9.80;99.90;;;;;;5078913;28;20470;-73
2023/12/11 04:51:17;;;;;;;14.73;14.13;;;9.70;99.90;;;;;;5083527;28;20455;-74
2023/12/11 04:53:44;;;;;;;15.00;14.33;;;9.60;99.90;;;;;;5089885;28;20458;-72
2023/12/11 04:56:12;;;;;;;15.40;14.70;;;9.60;99.90;;;;;;5084549;28;20458;-71
2023/12/11 04:58:39;;;;;;;14.50;13.90;;;9.60;99.90;;;;;;5086357;28;20545;-73
2023/12/11 05:01:07;;;;;;;14.20;13.63;;;9.60;99.90;;;;;;5088800;28;20462;-72
2023/12/11 05:03:34;;;;;;;14.10;13.60;;;9.60;99.90;;;;;;5088767;28;20953;-71
2023/12/11 05:06:01;;;;;;;13.70;13.20;;;9.60;99.90;;;;;;5076493;28;20467;-71
2023/12/11 05:08:28;;;;;;;14.30;13.70;;;9.70;99.90;;;;;;5074697;28;20456;-72
2023/12/11 05:10:55;;;;;;;13.90;13.40;;;9.60;99.90;;;;;;5092914;28;20457;-73
2023/12/11 05:13:22;;;;;;;14.13;13.57;;;9.60;99.90;;;;;;5089725;28;20462;-73
2023/12/11 05:15:50;;;;;;;14.07;13.47;;;9.50;99.90;;;;;;5079833;28;20457;-72
2023/12/11 05:18:19;;;;;;;14.50;13.90;;;9.50;99.90;;;;;;5082474;28;20455;-72
2023/12/11 05:20:46;;;;;;;13.70;13.20;;;9.50;99.90;;;;;;5077223;28;20459;-73
2023/12/11 05:23:14;;;;;;;14.07;13.47;;;9.50;99.90;;;;;;5075191;28;20459;-73
2023/12/11 05:25:41;;;;;;;14.30;13.70;;;9.50;99.90;;;;;;5081726;28;20489;-73
2023/12/11 05:28:08;;;;;;;14.33;13.73;;;9.50;99.90;;;;;;5086430;28;20502;-71
2023/12/11 05:30:35;;;;;;;14.97;14.30;;;9.50;99.90;;;;;;5082504;28;20457;-73
2023/12/11 05:33:03;;;;;;;14.23;13.63;;;9.40;99.90;;;;;;5070414;28;20459;-73
2023/12/11 05:35:31;;;;;;;14.27;13.67;;;9.40;99.90;;;;;;5078467;28;20463;-71
2023/12/11 05:37:58;;;;;;;14.00;13.40;;;9.30;99.90;;;;;;5074166;28;20475;-73
2023/12/11 05:40:25;;;;;;;13.50;13.00;;;9.30;99.90;;;;;;5088002;28;20454;-72
2023/12/11 05:42:53;;;;;;;13.60;13.10;;;9.20;99.90;;;;;;5085410;28;20446;-72
2023/12/11 05:45:20;;;;;;;13.63;13.13;;;9.20;99.90;;;;;;5088592;28;20478;-72
2023/12/11 05:47:47;;;;;;;13.83;13.33;;;9.20;99.90;;;;;;5081879;28;20486;-72
2023/12/11 05:50:14;;;;;;;13.87;13.37;;;9.30;99.90;;;;;;5068687;28;22251;-72
2023/12/11 05:52:42;;;;;;;13.33;12.83;;;9.30;99.90;;;;;;5083737;28;20513;-72
2023/12/11 05:55:09;;;;;;;13.83;13.33;;;9.30;99.90;;;;;;5083936;28;20450;-72
2023/12/11 05:57:36;;;;;;;14.00;13.50;;;9.30;99.90;;;;;;5082861;28;20570;-71
2023/12/11 06:00:04;;;;;;;13.33;12.83;;;9.40;99.90;;;;;;5083237;28;20508;-72
2023/12/11 06:02:31;;;;;;;13.43;12.93;;;9.40;99.90;;;;;;5082104;28;20720;-72
2023/12/11 06:04:57;;;;;;;13.03;12.63;;;9.40;99.90;;;;;;5087612;28;20454;-71
2023/12/11 06:07:25;;;;;;;13.07;12.60;;;9.40;99.90;;;;;;5077598;28;20490;-71
2023/12/11 06:09:53;;;;;;;12.10;11.70;;;9.50;99.90;;;;;;5081246;28;20463;-72
2023/12/11 06:12:20;;;;;;;12.53;12.13;;;9.50;99.90;;;;;;5084498;28;20466;-70
2023/12/11 06:14:48;;;;;;;12.13;11.73;;;9.50;99.90;;;;;;5080219;28;20469;-72
2023/12/11 06:17:16;;;;;;;11.87;11.47;;;9.50;99.90;;;;;;5084594;28;20456;-71
2023/12/11 06:19:44;;;;;;;11.67;11.37;;;9.60;99.90;;;;;;5079513;28;20820;-71
2023/12/11 06:22:11;;;;;;;11.40;11.10;;;9.50;99.90;;;;;;5076448;28;20470;-71
2023/12/11 06:24:39;;;;;;;11.83;11.43;;;9.60;99.90;;;;;;5084160;28;20724;-71
2023/12/11 06:27:08;;;;;;;11.70;11.30;;;9.60;99.90;;;;;;5097237;28;20494;-71
2023/12/11 06:29:37;;;;;;;11.67;11.27;;;9.60;99.90;;;;;;5083730;28;20469;-71
2023/12/11 06:32:04;;;;;;;10.63;10.33;;;9.60;99.90;;;;;;5085997;28;20893;-71
2023/12/11 06:34:33;;;;;;;10.90;10.60;;;9.70;99.90;;;;;;5077607;28;20473;-71
2023/12/11 06:37:00;;;;;;;10.77;10.47;;;9.70;99.90;;;;;;5078923;28;21130;-70
2023/12/11 06:39:27;;;;;;;10.10;9.90;;;9.70;99.90;;;;;;5076817;28;20460;-70
2023/12/11 06:41:54;;;;;;;10.43;10.17;;;9.80;99.90;;;;;;5087341;28;20465;-71
2023/12/11 06:44:23;;;;;;;10.30;10.10;;;9.80;99.90;;;;;;5077733;28;20462;-71
2023/12/11 06:46:51;;;;;;;10.07;9.87;;;9.90;99.90;;;;;;5068395;28;20464;-71
2023/12/11 06:49:18;;;;;;;10.10;9.90;;;9.90;99.90;;;;;;5080509;28;20520;-72
2023/12/11 06:51:45;;;;;;;10.00;9.80;;;9.90;99.90;;;;;;5080430;28;20458;-70
2023/12/11 06:54:13;;;;;;;10.67;10.37;;;9.90;99.90;;;;;;5078274;28;20558;-71
2023/12/11 06:56:40;;;;;;;10.00;9.80;;;9.90;99.90;;;;;;5087930;28;20987;-70
2023/12/11 06:59:07;;;;;;;10.43;10.20;;;9.90;99.90;;;;;;5080711;28;20466;-71
2023/12/11 07:01:36;;;;;;;10.10;9.90;;;10.00;99.90;;;;;;5084259;28;20950;-70
2023/12/11 07:04:03;;;;;;;10.30;10.10;;;10.00;99.90;;;;;;5079376;28;20470;-69
2023/12/11 07:06:31;;;;;;;10.60;10.30;;;10.20;99.90;;;;;;5084141;28;20482;-71
2023/12/11 07:08:59;;;;;;;11.03;10.73;;;10.20;99.90;;;;;;5076313;28;20489;-71
2023/12/11 07:11:27;;;;;;;11.27;10.97;;;10.20;99.90;;;;;;5091399;28;20454;-71
2023/12/11 07:13:54;;;;;;;11.03;10.73;;;10.30;99.90;;;;;;5099039;28;20445;-72
2023/12/11 07:16:23;;;;;;;10.93;10.63;;;10.30;99.90;;;;;;5086264;28;21122;-71
2023/12/11 07:18:52;;;;;;;11.53;11.23;;;10.40;99.90;;;;;;5076598;28;20459;-71
2023/12/11 07:21:20;;;;;;;11.07;10.77;;;10.30;99.90;;;;;;5084323;28;20462;-70
2023/12/11 07:23:50;;;;;;;11.30;11.00;;;10.30;99.90;;;;;;5086486;28;20999;-70
2023/12/11 07:26:17;;;;;;;11.00;10.70;;;10.40;99.90;;;;;;5088396;28;20461;-72
2023/12/11 07:28:44;;;;;;;11.53;11.23;;;10.40;99.90;;;;;;5086734;28;20489;-72
2023/12/11 07:31:11;;;;;;;11.53;11.23;;;10.40;99.90;;;;;;5090626;28;20457;-71
2023/12/11 07:33:38;;;;;;;11.50;11.20;;;10.50;99.90;;;;;;5093052;28;20541;-70
2023/12/11 07:36:08;;;;;;;11.63;11.33;;;10.50;99.90;;;;;;5075111;28;20470;-71
2023/12/11 07:38:35;;;;;;;11.80;11.50;;;10.50;99.90;;;;;;5081525;28;20855;-71
2023/12/11 07:41:02;;;;;;;11.70;11.40;;;10.40;99.90;;;;;;5090713;28;20454;-71
2023/12/11 07:43:28;;;;;;;11.70;11.40;;;10.50;99.90;;;;;;5078626;28;20467;-70
2023/12/11 07:45:55;;;;;;;11.40;11.10;;;10.50;99.90;;;;;;5090438;28;20551;-70
2023/12/11 07:48:22;;;;;;;11.73;11.43;;;10.50;99.90;;;;;;5083125;28;20585;-70
2023/12/11 07:50:49;;;;;;;11.10;10.80;;;10.60;99.90;;;;;;5078690;28;20463;-70
2023/12/11 07:53:17;;;;;;;11.80;11.50;;;10.60;99.90;;;;;;5090462;28;20464;-70
2023/12/11 07:55:46;;;;;;;11.50;11.20;;;10.60;99.90;;;;;;5089048;28;20454;-72
2023/12/11 07:58:14;;;;;;;11.70;11.40;;;10.60;99.90;;;;;;5077145;28;20459;-71
2023/12/11 08:00:42;;;;;;;11.67;11.37;;;10.60;99.90;;;;;;5077475;28;20547;-71
2023/12/11 08:03:09;;;;;;;11.57;11.27;;;10.60;99.90;;;;;;5090152;28;20937;-71
2023/12/11 08:05:36;;;;;;;11.80;11.50;;;10.60;99.90;;;;;;5090420;28;20446;-70
2023/12/11 08:08:03;;;;;;;11.73;11.43;;;10.70;99.90;;;;;;5079866;28;20487;-71
2023/12/11 08:10:33;;;;;;;12.10;11.80;;;10.70;99.90;;;;;;5082834;28;20470;-72
2023/12/11 08:13:00;;;;;;;11.53;11.23;;;10.70;99.90;;;;;;5085344;28;20470;-70
2023/12/11 08:15:28;;;;;;;11.73;11.43;;;10.70;99.90;;;;;;5087823;28;20472;-72
2023/12/11 08:17:55;;;;;;;11.80;11.50;;;10.80;99.90;;;;;;5087763;28;20570;-72
2023/12/11 08:20:22;;;;;;;12.50;12.10;;;10.80;99.90;;;;;;5073707;28;20470;-71
2023/12/11 08:22:49;;;;;;;12.27;11.90;;;10.80;99.90;;;;;;5070561;28;20473;-71
2023/12/11 08:25:15;;;;;;;12.50;12.10;;;10.80;99.90;;;;;;5079375;28;20486;-71
2023/12/11 08:27:44;;;;;;;12.50;12.10;;;10.80;99.90;;;;;;5078307;28;20646;-70
2023/12/11 08:30:12;;;;;;;12.37;11.97;;;10.80;99.90;;;;;;5073589;28;20498;-69
2023/12/11 08:32:39;;;;;;;11.97;11.67;;;10.80;99.90;;;;;;5076624;28;20461;-68
2023/12/11 08:35:08;;;;;;;11.73;11.43;;;10.80;99.90;;;;;;5077091;28;20522;-69
2023/12/11 08:37:35;;;;;;;12.10;11.80;;;10.80;99.90;;;;;;5078215;28;20465;-70
2023/12/11 08:40:04;;;;;;;12.17;11.87;;;10.80;99.90;;;;;;5074691;28;20466;-69
2023/12/11 08:42:33;;;;;;;11.83;11.53;;;10.80;99.90;;;;;;5077126;28;20462;-71
2023/12/11 08:45:01;;;;;;;11.73;11.43;;;10.80;99.90;;;;;;5078525;28;21274;-71
2023/12/11 08:47:29;;;;;;;11.80;11.50;;;10.80;99.90;;;;;;5075884;28;20969;-69
2023/12/11 08:49:56;;;;;;;11.93;11.63;;;10.80;99.90;;;;;;5075202;28;20864;-69
2023/12/11 08:52:24;;;;;;;11.63;11.33;;;10.70;99.90;;;;;;5073505;28;20561;-70
2023/12/11 08:54:51;;;;;;;11.37;11.07;;;10.70;99.90;;;;;;5072290;28;20471;-71
2023/12/11 08:57:19;;;;;;;11.40;11.10;;;10.60;99.90;;;;;;5076050;28;20452;-70
2023/12/11 08:59:47;;;;;;;11.50;11.20;;;10.50;99.90;;;;;;5077141;28;20863;-71
2023/12/11 09:02:15;;;;;;;11.80;11.50;;;10.60;99.90;;;;;;5070967;28;20462;-70
2023/12/11 09:04:43;;;;;;;11.17;10.87;;;10.40;99.90;;;;;;5077664;28;20470;-70
2023/12/11 09:07:09;;;;;;;11.20;10.90;;;10.30;99.90;;;;;;5076495;28;20575;-71
2023/12/11 09:09:38;;;;;;;11.00;10.70;;;10.30;99.90;;;;;;5072673;28;20891;-72
2023/12/11 09:12:06;;;;;;;11.60;11.30;;;10.30;99.90;;;;;;5074433;28;20466;-72
2023/12/11 09:14:33;;;;;;;11.10;10.80;;;10.40;99.90;;;;;;5071531;28;20463;-69
2023/12/11 09:17:01;;;;;;;11.00;10.70;;;10.40;99.90;;;;;;5076202;28;20469;-71
2023/12/11 09:19:29;;;;;;;11.07;10.77;;;10.40;99.90;;;;;;5077676;28;20473;-69
2023/12/11 09:21:56;;;;;;;12.00;11.60;;;10.30;99.90;;;;;;5076665;28;20466;-71
2023/12/11 09:24:23;;;;;;;11.50;11.20;;;10.20;99.90;;;;;;5071317;28;20487;-71
2023/12/11 09:26:50;;;;;;;11.10;10.80;;;10.10;99.90;;;;;;5074862;28;20494;-71
2023/12/11 09:29:17;;;;;;;11.27;10.97;;;10.10;99.90;;;;;;5071393;28;20518;-70
2023/12/11 09:31:45;;;;;;;11.60;11.20;;;10.10;99.90;;;;;;5074853;28;20970;-69
2023/12/11 09:34:13;;;;;;;11.07;10.77;;;10.00;99.90;;;;;;5075816;28;20553;-70
2023/12/11 09:36:41;;;;;;;10.50;10.20;;;9.90;99.90;;;;;;5074289;28;20465;-70
2023/12/11 09:39:08;;;;;;;9.70;9.50;;;9.90;99.90;;;;;;5071066;28;20467;-69
2023/12/11 09:41:36;;;;;;;10.83;10.53;;;9.90;99.90;;;;;;5072984;28;20466;-70
2023/12/11 09:44:04;;;;;;;10.70;10.40;;;9.80;99.90;;;;;;5071003;28;20454;-70
2023/12/11 09:46:33;;;;;;;11.10;10.80;;;9.90;99.90;;;;;;5076622;28;20945;-70
2023/12/11 09:49:00;;;;;;;11.40;11.03;;;9.90;99.90;;;;;;5076038;28;20482;-69
2023/12/11 09:51:28;;;;;;;11.50;11.10;;;10.00;99.90;;;;;;5075766;28;20555;-70
2023/12/11 09:53:57;;;;;;;11.60;11.20;;;10.00;99.90;;;;;;5074416;28;20946;-71
2023/12/11 09:56:25;;;;;;;11.47;11.10;;;10.10;99.90;;;;;;5076452;28;20470;-70
2023/12/11 09:58:52;;;;;;;11.80;11.40;;;10.20;99.90;;;;;;5071939;28;20474;-69
2023/12/11 10:01:19;;;;;;;11.70;11.30;;;10.20;99.90;;;;;;5075473;28;20458;-70
2023/12/11 10:03:47;;;;;;;12.00;11.60;;;10.30;99.90;;;;;;5074038;28;20465;-70
2023/12/11 10:06:14;;;;;;;11.20;10.90;;;10.30;99.90;;;;;;5077537;28;20468;-71
2023/12/11 10:08:43;;;;;;;10.00;9.80;;;10.40;99.90;;;;;;5074982;28;20486;-70
2023/12/11 10:11:12;;;;;;;9.40;9.20;;;10.40;99.90;;;;;;5076276;28;20839;-70
2023/12/11 10:13:39;;;;;;;9.80;9.60;;;10.50;99.90;;;;;;5076523;28;20957;-71
2023/12/11 10:16:27;;;;;;;10.13;9.93;;;10.50;99.90;;;;;;5072484;28;20474;-71
2023/12/11 10:18:55;;;;;;;9.90;9.70;;;10.50;99.90;;;;;;5073845;28;20910;-70
2023/12/11 10:21:24;;;;;;;9.93;9.73;;;10.40;99.90;;;;;;5076739;28;20552;-70
2023/12/11 10:24:03;;;;;;;9.23;9.03;;;10.40;99.90;;;;;;5076600;28;20487;-70
2023/12/11 10:26:33;;;;;;;9.20;9.00;;;10.40;99.90;;;;;;5076497;28;21016;-70
2023/12/11 10:29:19;;;;;;;8.87;8.67;;;10.50;99.90;;;;;;5073938;28;20493;-70
2023/12/11 10:31:46;;;;;;;9.20;9.00;;;10.50;99.90;;;;;;5070254;28;20462;-71
2023/12/11 10:34:14;;;;;;;9.17;8.97;;;10.50;99.90;;;;;;5071917;28;20462;-71
2023/12/11 10:36:49;;;;;;;9.27;9.07;;;10.40;99.90;;;;;;5079765;28;20462;-70
2023/12/11 10:39:18;;;;;;;10.10;9.90;;;10.30;99.90;;;;;;5079268;28;20470;-70
2023/12/11 10:41:47;;;;;;;11.10;10.80;;;10.20;99.90;;;;;;5079506;28;20482;-70
2023/12/11 10:44:24;;;;;;;13.90;13.30;;;10.10;99.90;;;;;;5080242;28;20827;-69
2023/12/11 10:46:54;;;;;;;14.30;13.70;;;10.00;99.90;;;;;;5075043;28;20464;-72
2023/12/11 10:49:23;;;;;;;14.53;13.93;;;10.00;99.90;;;;;;5076137;28;20532;-71
2023/12/11 10:51:50;;;;;;;14.40;13.80;;;10.00;99.90;;;;;;5081599;28;20992;-71
2023/12/11 10:54:19;;;;;;;14.10;13.60;;;10.00;99.90;;;;;;5079204;28;20459;-72
2023/12/11 10:56:48;;;;;;;13.93;13.43;;;10.00;99.90;;;;;;5078638;28;20459;-71
2023/12/11 10:59:17;;;;;;;13.97;13.47;;;10.00;99.90;;;;;;5076397;28;20459;-71
2023/12/11 11:01:47;;;;;;;13.30;12.80;;;10.20;99.90;;;;;;5078686;28;20549;-70
2023/12/11 11:04:17;;;;;;;13.70;13.20;;;10.20;99.90;;;;;;5080590;28;20487;-71
2023/12/11 11:06:52;;;;;;;13.50;13.00;;;10.10;99.90;;;;;;5074743;28;21235;-70
2023/12/11 11:09:28;;;;;;;12.93;12.53;;;10.00;99.90;;;;;;5080236;28;20519;-71
2023/12/11 11:12:04;;;;;;;12.43;12.03;;;9.90;99.90;;;;;;5080137;28;20562;-71
2023/12/11 11:14:45;;;;;;;13.60;13.10;;;9.90;99.90;;;;;;5079189;28;20492;-69
2023/12/11 11:17:12;;;;;;;13.80;13.30;;;9.80;99.90;;;;;;5080919;28;21084;-72
2023/12/11 11:20:12;;;;;;;14.67;14.07;;;9.70;99.90;;;;;;5076408;28;20481;-73
2023/12/11 11:22:39;;;;;;;15.17;14.53;;;9.70;99.90;;;;;;5075503;28;20473;-69
2023/12/11 11:25:32;;;;;;;14.80;14.20;;;9.70;99.90;;;;;;5078604;28;21101;-70
2023/12/11 11:28:01;;;;;;;14.80;14.20;;;9.70;99.90;;;;;;5079798;28;20513;-70
2023/12/11 11:30:48;;;;;;;14.17;13.67;;;9.70;99.90;;;;;;5078871;28;20471;-70
2023/12/11 11:33:16;;;;;;;14.10;13.60;;;9.60;99.90;;;;;;5081657;28;20451;-71
2023/12/11 11:35:49;;;;;;;13.30;12.90;;;9.50;99.90;;;;;;5075925;28;20899;-71
2023/12/11 11:38:18;;;;;;;12.97;12.57;;;9.50;99.90;;;;;;5076549;28;20455;-71
2023/12/11 11:40:44;;;;;;;12.93;12.53;;;9.50;99.90;;;;;;5075876;28;20511;-71
2023/12/11 11:43:13;;;;;;;13.17;12.77;;;9.60;99.90;;;;;;5076132;28;20771;-71
2023/12/11 11:45:40;;;;;;;13.37;12.97;;;9.70;99.90;;;;;;5079389;28;20589;-73
2023/12/11 11:48:07;;;;;;;13.67;13.27;;;9.70;99.90;;;;;;5077049;28;20467;-72
2023/12/11 11:50:35;;;;;;;13.17;12.77;;;9.80;99.90;;;;;;5078572;28;20468;-71
2023/12/11 11:53:07;;;;;;;13.77;13.27;;;9.70;99.90;;;;;;5074978;28;20502;-71
2023/12/11 11:55:39;;;;;;;12.90;12.50;;;9.70;99.90;;;;;;5080937;28;20464;-71
2023/12/11 11:58:13;;;;;;;12.87;12.47;;;9.70;99.90;;;;;;5076506;28;20984;-71
2023/12/11 12:00:40;;;;;;;13.20;12.80;;;9.70;99.90;;;;;;5078831;28;20804;-72
2023/12/11 12:03:08;;;;;;;12.73;12.33;;;9.70;99.90;;;;;;5069898;28;20981;-71
2023/12/11 12:05:35;;;;;;;13.43;12.93;;;9.70;99.90;;;;;;5075860;28;20558;-72
2023/12/11 12:08:06;;;;;;;12.70;12.30;;;9.70;99.90;;;;;;5073220;28;20944;-72
2023/12/11 12:10:34;;;;;;;13.17;12.77;;;9.60;99.90;;;;;;5074524;28;20483;-71
2023/12/11 12:13:02;;;;;;;13.50;13.03;;;9.70;99.90;;;;;;5080785;28;21028;-72
2023/12/11 12:15:30;;;;;;;13.40;13.00;;;9.70;99.90;;;;;;5078082;28;20466;-73
2023/12/11 12:18:07;;;;;;;13.50;13.00;;;9.70;99.90;;;;;;5079671;28;20489;-71
2023/12/11 12:20:33;;;;;;;13.67;13.17;;;9.70;99.90;;;;;;5072300;28;20462;-71
2023/12/11 12:23:02;;;;;;;13.23;12.83;;;9.70;99.90;;;;;;5081021;28;20466;-71
2023/12/11 12:25:30;;;;;;;13.57;13.07;;;9.70;99.90;;;;;;5065076;28;20495;-70
2023/12/11 12:28:01;;;;;;;13.50;13.00;;;9.60;99.90;;;;;;5058368;28;20487;-71
2023/12/11 12:30:30;;;;;;;13.80;13.30;;;9.80;99.90;;;;;;5059432;28;20484;-72
2023/12/11 12:32:58;;;;;;;13.53;13.03;;;9.90;99.90;;;;;;5063163;28;20530;-70
2023/12/11 12:35:26;;;;;;;13.50;13.00;;;9.90;99.90;;;;;;5057450;28;20551;-69
2023/12/11 12:37:54;;;;;;;13.57;13.07;;;9.80;99.90;;;;;;5051444;28;20503;-72
2023/12/11 12:40:21;;;;;;;13.67;13.17;;;9.70;99.90;;;;;;5059706;28;20495;-71